Latest Coastal Weather Observations for Stenhouse Bay

IDS60701

Issued at 5:11 am CDT Monday 22 December 2014 (issued every 10 minutes, with the page automatically refreshed every 10 minutes)

About coastal observations | Map of coastal stations | Coastal observations for SA | Marine services | Other Formats
Station Details ID: 022049 Name: STENHOUSE BAY Lat: -35.28 Lon: 136.94 Height: 42.0 m
Data from the previous 72 hours. | See also: Recent months at Stenhouse Bay
Date/Time
CDT
Temp

°C
Wind Pressure Rain
since 9am
mm
Weather Cloud Vis
km
Sea
Height
m
Swell
Dir
 
Speed
knots
Gust
knots
hPa Trend Height
m
Period
s
Dir
22/05:00am 18.4 ESE 14 19 1006.7 - 0.6 - - - - - - -
22/04:30am 18.6 SE 11 13 1007.3 - 0.6 - - - - - - -
22/04:00am 18.2 SE 15 20 1007.1 - 0.6 - - - - - - -
22/03:58am 18.2 SE 16 21 1007.0 - 0.6 - - - - - - -
22/03:30am 17.3 ESE 21 27 1006.6 - 0.6 - - - - - - -
22/03:13am 16.9 ESE 18 26 1007.1 - 0.6 - - - - - - -
22/03:00am 16.8 ESE 12 15 1008.8 - 0.6 Recent precip. - - - - - -
22/02:30am 16.9 SE 10 14 1009.4 - 0.4 - - - - - - -
22/02:00am 18.2 SE 15 21 1009.0 - 0.0 - - - - - - -
22/01:30am 18.2 ESE 14 18 1009.3 - 0.0 - - - - - - -
22/01:00am 18.2 ESE 16 19 1009.4 - 0.0 - - - - - - -
22/12:30am 18.0 SE 12 15 1010.4 - 0.0 - - - - - - -
22/12:00am 17.8 SE 16 21 1010.5 - 0.0 - - - - - - -
 
Date/Time
CDT
Temp

°C
Wind Pressure Rain
since 9am
mm
Weather Cloud Vis
km
Sea
Height
m
Swell
Dir
 
Speed
knots
Gust
knots
hPa Trend Height
m
Period
s
Dir
21/11:30pm 17.6 SSE 16 21 1011.1 - 0.0 - - - - - - -
21/11:00pm 17.5 SSE 17 23 1011.1 - 0.0 - - - - - - -
21/10:30pm 17.9 SSE 23 26 1011.1 - 0.0 - - - - - - -
21/10:00pm 18.0 SSE 16 19 1012.5 - 0.0 - - - - - - -
21/09:30pm 18.6 SSE 12 15 1012.9 - 0.0 - - - - - - -
21/09:00pm 18.9 SSE 12 16 1011.9 - 0.0 - - - - - - -
21/08:30pm 19.6 SE 10 12 1011.1 - 0.0 - - - - - - -
21/08:00pm 20.0 ESE 13 16 1010.2 - 0.0 - - - - - - -
21/07:30pm 20.3 SE 11 14 1010.0 - 0.0 - - - - - - -
21/07:00pm 20.7 SE 9 12 1010.1 - 0.0 - - - - - - -
21/06:30pm 21.3 SE 10 15 1010.0 - 0.0 - - - - - - -
21/06:00pm 21.4 SE 13 15 1009.4 - 0.0 - - - - - - -
21/05:30pm 21.8 SE 13 16 1008.9 - 0.0 - - - - - - -
21/05:00pm 22.3 ESE 14 18 1009.0 - 0.0 - - - - - - -
21/04:30pm 23.2 ESE 15 19 1009.1 - 0.0 - - - - - - -
21/04:00pm 23.7 ESE 14 18 1009.5 - 0.0 - - - - - - -
21/03:30pm 24.0 ESE 13 17 1009.8 - 0.0 - - - - - - -
21/03:00pm 25.8 ESE 13 17 1010.4 - 0.0 - - - - - - -
21/02:30pm 25.9 ESE 11 15 1010.7 - 0.0 - - - - - - -
21/02:00pm 25.0 E 9 12 1011.5 - 0.0 - - - - - - -
21/01:30pm 24.7 E 8 11 1011.7 - 0.0 - - - - - - -
21/01:00pm 24.6 E 7 9 1011.9 - 0.0 - - - - - - -
21/12:30pm 24.1 E 6 8 1012.0 - 0.0 - - - - - - -
21/12:00pm 24.4 E 7 9 1011.9 - 0.0 - - - - - - -
21/11:30am 25.9 ESE 7 10 1012.0 - 0.0 - - - - - - -
21/11:00am 24.3 SSE 7 10 1011.8 - 0.0 - - - - - - -
21/10:30am 22.8 SSE 9 11 1011.8 - 0.0 - - - - - - -
21/10:00am 22.3 SSE 9 11 1011.9 - 0.0 - - - - - - -
21/09:30am 21.5 SSE 7 8 1011.7 - 0.0 - - - - - - -
21/09:00am 21.2 SSE 6 7 1011.3 - 0.0 - - - - - - -
21/08:30am 21.6 ESE 4 5 1011.1 - 0.0 - - - - - - -
21/08:00am 20.9 ENE 6 8 1010.6 - 0.0 - - - - - - -
21/07:30am 20.1 ENE 8 10 1010.2 - 0.0 - - - - - - -
21/07:00am 19.2 ENE 9 11 1010.0 - 0.0 - - - - - - -
21/06:30am 18.5 E 8 11 1010.0 - 0.0 - - - - - - -
21/06:00am 18.2 E 8 10 1010.2 - 0.0 - - - - - - -
21/05:30am 18.1 E 9 12 1010.3 - 0.0 - - - - - - -
21/05:00am 17.9 E 11 13 1010.5 - 0.0 - - - - - - -
21/04:30am 17.8 E 10 12 1010.6 - 0.0 - - - - - - -
21/04:00am 17.5 ESE 10 12 1010.7 - 0.0 - - - - - - -
21/03:30am 17.8 E 11 13 1011.0 - 0.0 - - - - - - -
21/03:00am 17.7 E 11 13 1011.4 - 0.0 - - - - - - -
21/02:30am 17.7 ESE 10 12 1011.7 - 0.0 - - - - - - -
21/02:00am 17.7 ESE 11 15 1011.9 - 0.0 - - - - - - -
21/01:30am 17.7 ESE 15 19 1011.9 - 0.0 - - - - - - -
21/01:00am 17.8 E 14 19 1012.4 - 0.0 - - - - - - -
21/12:30am 17.6 ESE 11 14 1013.0 - 0.0 - - - - - - -
21/12:00am 17.5 ESE 12 15 1012.9 - 0.0 - - - - - - -
 
Date/Time
CDT
Temp

°C
Wind Pressure Rain
since 9am
mm
Weather Cloud Vis
km
Sea
Height
m
Swell
Dir
 
Speed
knots
Gust
knots
hPa Trend Height
m
Period
s
Dir
20/11:30pm 17.5 ESE 12 15 1013.2 - 0.0 - - - - - - -
20/11:00pm 17.6 ESE 14 17 1013.3 - 0.0 - - - - - - -
20/10:30pm 17.8 ESE 15 18 1013.6 - 0.0 - - - - - - -
20/10:00pm 18.0 ESE 15 18 1013.9 - 0.0 - - - - - - -
20/09:30pm 18.6 ESE 15 19 1013.9 - 0.0 - - - - - - -
20/09:00pm 18.8 ESE 14 18 1014.0 - 0.0 - - - - - - -
20/08:30pm 19.0 E 13 17 1014.1 - 0.0 - - - - - - -
20/08:00pm 19.3 E 13 17 1014.0 - 0.0 - - - - - - -
20/07:30pm 20.1 E 10 13 1014.2 - 0.0 - - - - - - -
20/07:00pm 21.2 ESE 8 10 1014.3 - 0.0 - - - - - - -
20/06:30pm 21.5 ESE 8 10 1014.0 - 0.0 - - - - - - -
20/06:00pm 22.0 ESE 7 10 1014.1 - 0.0 - - - - - - -
20/05:30pm 22.1 ESE 9 12 1014.1 - 0.0 - - - - - - -
20/05:00pm 22.4 ESE 9 11 1014.6 - 0.0 - - - - - - -
20/04:30pm 21.9 ESE 8 9 1015.2 - 0.0 - - - - - - -
20/04:00pm 21.8 E 8 10 1015.4 - 0.0 - - - - - - -
20/03:30pm 21.7 E 8 10 1015.6 - 0.0 - - - - - - -
20/03:00pm 21.9 E 9 11 1016.1 - 0.0 - - - - - - -
20/02:30pm 22.0 E 8 11 1016.6 - 0.0 - - - - - - -
20/02:00pm 21.8 E 8 11 1017.0 - 0.0 - - - - - - -
20/01:30pm 22.0 E 9 11 1017.5 - 0.0 - - - - - - -
20/01:00pm 21.1 E 9 11 1018.0 - 0.0 - - - - - - -
20/12:30pm 20.5 E 8 10 1018.4 - 0.0 - - - - - - -
20/12:00pm 20.6 E 8 10 1018.8 - 0.0 - - - - - - -
20/11:30am 20.5 ESE 8 11 1018.9 - 0.0 - - - - - - -
20/11:00am 20.7 ESE 9 11 1019.0 - 0.0 - - - - - - -
20/10:30am 20.2 E 9 11 1019.1 - 0.0 - - - - - - -
20/10:00am 20.2 ESE 7 10 1019.5 - 0.0 - - - - - - -
20/09:30am 19.6 E 7 10 1019.8 - 0.0 - - - - - - -
20/09:00am 19.5 E 7 9 1019.7 - 0.0 - - - - - - -
20/08:30am 18.4 E 6 8 1019.7 - 0.0 - - - - - - -
20/08:00am 18.1 E 6 9 1019.3 - 0.0 - - - - - - -
20/07:30am 17.5 ESE 8 10 1018.8 - 0.0 - - - - - - -
20/07:00am 15.6 NE 2 6 1018.9 - 0.0 - - - - - - -
20/06:30am 13.8 CALM 0 1 1018.9 - 0.0 - - - - - - -
20/06:00am 14.3 NNW 1 5 1018.9 - 0.0 - - - - - - -
20/05:30am 15.6 E 7 9 1018.7 - 0.0 - - - - - - -
20/05:00am 15.5 E 7 10 1018.5 - 0.0 - - - - - - -
20/04:30am 15.3 ESE 9 11 1018.0 - 0.0 - - - - - - -
20/04:00am 15.4 ESE 8 11 1018.2 - 0.0 - - - - - - -
20/03:30am 15.3 ESE 10 13 1018.0 - 0.0 - - - - - - -
20/03:00am 15.4 ESE 11 13 1018.3 - 0.0 - - - - - - -
20/02:30am 15.4 ESE 10 13 1018.6 - 0.0 - - - - - - -
20/02:00am 15.4 SE 11 14 1018.9 - 0.0 - - - - - - -
20/01:30am 15.5 SE 10 12 1019.5 - 0.0 - - - - - - -
20/01:00am 15.5 SE 10 13 1020.0 - 0.0 - - - - - - -
20/12:30am 15.6 SE 9 12 1020.3 - 0.0 - - - - - - -
20/12:00am 15.7 SE 9 14 1020.5 - 0.0 - - - - - - -
 
Date/Time
CDT
Temp

°C
Wind Pressure Rain
since 9am
mm
Weather Cloud Vis
km
Sea
Height
m
Swell
Dir
 
Speed
knots
Gust
knots
hPa Trend Height
m
Period
s
Dir
19/11:30pm 15.8 SSE 9 13 1020.6 - 0.0 - - - - - - -
19/11:00pm 16.1 SE 10 13 1020.9 - 0.0 - - - - - - -
19/10:30pm 16.6 SSE 10 13 1020.9 - 0.0 - - - - - - -
19/10:00pm 17.2 SE 9 12 1020.8 - 0.0 - - - - - - -
19/09:30pm 17.2 SSE 9 12 1020.7 - 0.0 - - - - - - -
19/09:00pm 16.6 SSW 13 17 1020.6 - 0.0 - - - - - - -
19/08:30pm 16.7 SSW 13 18 1020.5 - 0.0 - - - - - - -
19/08:00pm 16.9 SW 13 17 1020.5 - 0.0 - - - - - - -
19/07:30pm 17.3 SW 14 19 1020.4 - 0.0 - - - - - - -
19/07:00pm 17.9 SW 15 20 1020.3 - 0.0 - - - - - - -
19/06:30pm 18.3 SW 15 19 1020.4 - 0.0 - - - - - - -
19/06:00pm 18.8 SW 14 19 1020.2 - 0.0 - - - - - - -
19/05:30pm 19.1 SW 14 18 1020.1 - 0.0 - - - - - - -
19/05:00pm 19.3 SW 14 19 1020.2 - 0.0 - - - - - - -
19/04:30pm 20.0 SW 14 18 1020.3 - 0.0 - - - - - - -
19/04:00pm 19.9 SW 13 18 1020.6 - 0.0 - - - - - - -
19/03:30pm 20.6 SW 12 16 1020.7 - 0.0 - - - - - - -
19/03:00pm 20.2 SW 11 15 1020.9 - 0.0 - - - - - - -
19/02:30pm 20.8 SW 10 13 1021.0 - 0.0 - - - - - - -
19/02:00pm 20.1 SW 9 13 1021.0 - 0.0 - - - - - - -
19/01:30pm 19.9 SW 9 13 1021.1 - 0.0 - - - - - - -
19/01:00pm 19.8 SW 9 12 1021.3 - 0.0 - - - - - - -
19/12:30pm 19.6 SW 7 10 1021.7 - 0.0 - - - - - - -
19/12:00pm 19.3 SW 6 9 1021.9 - 0.0 - - - - - - -
19/11:30am 19.3 SW 6 10 1021.9 - 0.0 - - - - - - -
19/11:00am 19.1 SSW 6 8 1021.8 - 0.0 - - - - - - -
19/10:30am 18.4 S 5 8 1021.6 - 0.0 - - - - - - -
19/10:00am 18.2 SSW 5 7 1021.5 - 0.0 - - - - - - -
19/09:30am 17.6 S 5 8 1021.2 - 0.0 - - - - - - -
19/09:00am 17.4 S 6 9 1020.7 - 0.8 - - - - - - -
19/08:30am 17.0 S 7 9 1020.3 - 0.8 - - - - - - -
19/08:00am 16.7 S 8 11 1019.9 - 0.8 - - - - - - -
19/07:30am 16.0 S 9 11 1019.5 - 0.8 - - - - - - -
19/07:00am 15.5 S 9 12 1019.2 - 0.8 - - - - - - -
19/06:30am 14.8 S 9 12 1018.7 - 0.8 - - - - - - -
19/06:00am 14.6 S 10 13 1018.4 - 0.8 - - - - - - -
19/05:30am 14.7 S 10 13 1018.2 - 0.8 - - - - - - -

Other Formats:

Comma delimited format used in spreadsheet applications
http://www.bom.gov.au/fwo/IDS60701/IDS60701.95806.axf

JavaScript Object Notation format (JSON) in row-major order
http://www.bom.gov.au/fwo/IDS60701/IDS60701.95806.json